Knightsen, CA (94548)

7:56 PM PDT on September 18, 2014 (GMT -0700)
N6ML - North Brentwood | Change Station
CLOSE
Current Station
Personal Weather Station
Location: Brentwood, CA
Elevation: 66 ft
Nearby Weather Stations

Elev 66 ft 37.96 °N, 121.70 °W | Updated 29 seconds ago

Clear
Clear
71.8 °F
Feels Like 76 °F
N
4.0
Wind Variable Wind from WNW
Gusts 13.0 mph

Today
High -- | Low -- °F
--% Chance of Precip.
Yesterday
High -- | Low -- °F
Precip. -- in
6:51 AM 7:09 PM
Waning Crescent, 22% visible
Pressure 29.82 in
Visibility 10.0 miles
Clouds Clear
Heat Index 76 °F
Dew Point 59 °F
Humidity 64%
Rainfall 0.00 in
Snow Depth 0 in , 0 in , 0 in
UV 0 out of 12
Pollen 5.40 out of 12
Air Quality Not available.
Flu Activity Not available.
METAR KLVK 190153Z 29011KT 10SM CLR 23/16 A2983 RMK AO2 SLP098 T02280156

More Conditions Fewer Conditions

Pressure 29.82 in
Visibility 10.0 miles
Clouds Clear
Heat Index 76 °F
Dew Point 59 °F
Humidity 64%
Rainfall 0.00 in
Snow Depth 0 in , 0 in , 0 in
UV 0 out of 12
Pollen 5.40 out of 12
Air Quality Not available.
Flu Activity Not available.
METAR KLVK 190153Z 29011KT 10SM CLR 23/16 A2983 RMK AO2 SLP098 T02280156

More Conditions Fewer Conditions

10-Day Weather Forecast

Almanac

Astronomy

Sep. 18, 2014 Rise Set
Actual Time 6:51 AM PDT 7:09 PM PDT
Civil Twilight 6:24 AM PDT 7:35 PM PDT
Nautical Twilight 5:53 AM PDT 8:06 PM PDT
Astronomical Twilight 5:22 AM PDT 8:38 PM PDT
Moon 1:51 AM PDT (9/18) 4:00 PM PDT (9/18)
Length of Visible Light 13h 11m
Length of Day
12h 18m
Tomorrow will be 2m 25s shorter.
Waning Crescent, 22% of the Moon is Illuminated
Today
Waning Crescent
Sep 24
New
Oct 1
First Quarter
Oct 8
Full
Oct 15
Last Quarter

Today's Extremes

State Highs State Lows

Community

WunderPhotos

Upload Photos

1,754,546 photos uploaded!

Nearby

Air Quality

  Air Quality AQ Index Pollutant
Yesterday Good
OZONE
Yesterday Good
PM2.5
Thursday Good
OZONE
Friday Good
OZONE
Saturday Moderate
PM2.5
Sunday Moderate
PM2.5
Monday Good
OZONE
Tuesday Good
OZONE

Snow Depth

Station Depth Elevation
Summit Meadow 0 in 9122 ft
Blue Lakes 0 in 8000 ft
Tahoe City Cross 0 in 6750 ft
Leavitt Meadows 0 in 7200 ft
Forestdale Creek 0 in 8029 ft

Earthquake Activity

City Distance Mag. Time & Date
Corcoran, California 170 miles 3.0 3:59 PM PDT
2014-09-18
The Geysers, California 78 miles 2.5 11:29 PM PDT
2014-09-17
Cobb, California 80 miles 2.7 1:23 PM PDT
2014-09-16
Minimum magnitude displayed is 2.5.

Coastal Water Temperatures

Place Temperature
San Francisco, CA 64.9 °F
Richmond, CA 68.0 °F
Port Chicago, CA 71.1 °F

Nearby Weather Stations